NCAR-RAP Real-Time Weather Data

Output produced by METARs form (12 August 2020  18:45 UTC)
found at http://weather.rap.ucar.edu/surface/
 
KSJT 121751Z 18011G19KT 10SM CLR 37/17 A2997 RMK AO2 SLP116 T03670167 10372 20261 58004
KSJT 121651Z 17011G19KT 10SM CLR 34/18 A2998 RMK AO2 SLP122 T03440183
KSJT 121551Z 17014G18KT 10SM CLR 32/19 A2998 RMK AO2 SLP121 T03220189
KSJT 121451Z 18012G20KT 10SM CLR 30/19 A2998 RMK AO2 SLP122 T03000194 58002
KSJT 121351Z 18011KT 10SM CLR 28/19 A2999 RMK AO2 SLP126 T02780194
KSJT 121251Z 18009KT 10SM CLR 26/20 A3000 RMK AO2 SLP128 T02610200
KSJT 121151Z 19009KT 10SM CLR 26/20 A2998 RMK AO2 SLP123 T02610200 10300 20261 51009
KSJT 121051Z AUTO 18006KT 10SM CLR 27/19 A2998 RMK AO2 SLP122 T02670194 TSNO
KSJT 120951Z AUTO 18010G17KT 10SM CLR 28/19 A2996 RMK AO2 SLP115 T02780189 TSNO
KSJT 120851Z AUTO 19009KT 10SM CLR 28/18 A2996 RMK AO2 SLP112 T02830183 51004
KSJT 120751Z AUTO 18008KT 10SM CLR 29/17 A2995 RMK AO2 SLP111 T02890167
KSJT 120651Z AUTO 17008KT 10SM CLR 29/15 A2995 RMK AO2 SLP112 T02940150
KSJT 120551Z AUTO 16007KT 10SM CLR 31/14 A2994 RMK AO2 SLP109 T03060144 10378 20300 403890244 51010
KSJT 120451Z AUTO 17005KT 10SM CLR 31/14 A2994 RMK AO2 SLP106 T03060144
KSJT 120351Z AUTO 17007KT 10SM CLR 32/14 A2993 RMK AO2 SLP104 T03220144
KSJT 120251Z AUTO 15006KT 10SM CLR 32/13 A2991 RMK AO2 SLP100 T03170133 53010
KSJT 120151Z AUTO 16006KT 10SM CLR 34/13 A2989 RMK AO2 SLP093 T03440133
KSJT 120051Z 18008KT 10SM CLR 37/13 A2989 RMK AO2 SLP090 T03670133
KSJT 112351Z 19007KT 150V220 10SM CLR 38/13 A2988 RMK AO2 SLP088 T03780133 10389 20350 56012
KSJT 112251Z 17014G20KT 10SM CLR 39/14 A2989 RMK AO2 SLP089 T03890139
KSJT 112151Z 18011G24KT 10SM CLR 38/14 A2990 RMK AO2 SLP092 T03830139